createdAt,value
2023-04-04T00:00:20.997Z,23.90
2023-04-04T00:01:21.056Z,23.95
2023-04-04T00:02:21.143Z,23.94
2023-04-04T00:03:21.402Z,23.91
2023-04-04T00:04:21.221Z,23.92
2023-04-04T00:05:21.233Z,23.90
2023-04-04T00:06:21.271Z,23.93
2023-04-04T00:07:21.302Z,23.90
2023-04-04T00:08:21.343Z,23.83
2023-04-04T00:09:21.378Z,23.90
2023-04-04T00:10:21.422Z,23.92
2023-04-04T00:11:21.434Z,23.88
2023-04-04T00:12:22.588Z,23.97
2023-04-04T00:13:21.473Z,23.89
2023-04-04T00:14:21.436Z,23.91
2023-04-04T00:15:21.421Z,23.89
2023-04-04T00:16:21.499Z,23.91
2023-04-04T00:17:21.413Z,23.89
2023-04-04T00:18:21.406Z,23.90
2023-04-04T00:19:21.399Z,23.91
2023-04-04T00:20:21.387Z,23.93
2023-04-04T00:21:21.384Z,23.93
2023-04-04T00:22:21.362Z,23.88
2023-04-04T00:23:21.366Z,23.90
2023-04-04T00:24:21.353Z,23.90
2023-04-04T00:25:21.378Z,23.88
2023-04-04T00:26:21.337Z,23.88
2023-04-04T00:27:21.343Z,23.89
2023-04-04T00:28:21.618Z,23.93
2023-04-04T00:29:21.336Z,23.93
2023-04-04T00:30:21.302Z,23.97
2023-04-04T00:31:21.333Z,23.85
2023-04-04T00:32:21.348Z,23.91
2023-04-04T00:33:21.332Z,23.85
2023-04-04T00:34:21.277Z,23.87
2023-04-04T00:35:21.259Z,23.88
2023-04-04T00:36:21.256Z,23.88
2023-04-04T00:37:21.252Z,23.84
2023-04-04T00:38:22.113Z,23.87
2023-04-04T00:39:21.234Z,23.88
2023-04-04T00:40:21.288Z,23.84
2023-04-04T00:41:21.218Z,23.84
2023-04-04T00:42:21.217Z,23.85
2023-04-04T00:43:21.206Z,23.85
2023-04-04T00:44:21.200Z,23.87
2023-04-04T00:45:21.216Z,23.84
2023-04-04T00:46:21.179Z,23.87
2023-04-04T00:47:21.243Z,23.84
2023-04-04T00:48:21.176Z,23.85
2023-04-04T00:49:21.164Z,23.85
2023-04-04T00:50:21.154Z,23.85
2023-04-04T00:51:22.115Z,23.87
2023-04-04T00:52:21.149Z,23.83
2023-04-04T00:53:21.130Z,23.90
2023-04-04T00:54:21.137Z,23.81
2023-04-04T00:55:21.120Z,23.83
2023-04-04T00:56:21.114Z,23.78
2023-04-04T00:57:21.101Z,23.85
2023-04-04T00:58:21.090Z,23.84
2023-04-04T00:59:21.131Z,23.82
2023-04-04T01:00:21.124Z,23.78
2023-04-04T01:01:21.126Z,23.79
2023-04-04T01:02:21.058Z,23.78
2023-04-04T01:03:21.057Z,23.78
2023-04-04T01:04:21.071Z,23.76
2023-04-04T01:05:21.034Z,23.81
2023-04-04T01:06:21.027Z,23.78
2023-04-04T01:07:21.037Z,23.75
2023-04-04T01:08:21.007Z,23.85
2023-04-04T01:09:20.998Z,23.77
2023-04-04T01:10:21.004Z,23.75
2023-04-04T01:11:20.989Z,23.75
2023-04-04T01:12:20.976Z,23.76
2023-04-04T01:13:20.975Z,23.75
2023-04-04T01:14:21.123Z,23.77
2023-04-04T01:15:20.969Z,23.74
2023-04-04T01:16:20.959Z,23.74
2023-04-04T01:17:20.962Z,23.77
2023-04-04T01:18:20.931Z,23.76
2023-04-04T01:19:20.925Z,23.76
2023-04-04T01:20:20.935Z,23.78
2023-04-04T01:21:20.904Z,23.77
2023-04-04T01:22:20.904Z,23.75
2023-04-04T01:23:20.900Z,23.71
2023-04-04T01:24:20.883Z,23.74
2023-04-04T01:25:20.874Z,23.71
2023-04-04T01:26:20.883Z,23.72
2023-04-04T01:27:20.881Z,23.71
2023-04-04T01:28:20.901Z,23.75
2023-04-04T01:29:20.888Z,23.75
2023-04-04T01:30:20.898Z,23.74
2023-04-04T01:31:20.936Z,23.69
2023-04-04T01:32:20.917Z,23.72
2023-04-04T01:33:20.948Z,23.69
2023-04-04T01:34:20.931Z,23.72
2023-04-04T01:35:20.955Z,23.72
2023-04-04T01:36:20.984Z,23.68
2023-04-04T01:37:20.945Z,23.74
2023-04-04T01:38:20.955Z,23.72
2023-04-04T01:39:20.955Z,23.68
2023-04-04T01:40:20.965Z,23.68
2023-04-04T01:41:20.987Z,23.69
2023-04-04T01:42:20.979Z,23.71
2023-04-04T01:43:20.994Z,23.72
2023-04-04T01:44:21.014Z,23.71
2023-04-04T01:45:21.008Z,23.68
2023-04-04T01:46:21.039Z,23.66
2023-04-04T01:47:21.028Z,23.68
2023-04-04T01:48:21.030Z,23.68
2023-04-04T01:49:21.062Z,23.68
2023-04-04T01:50:21.046Z,23.63
2023-04-04T01:51:21.053Z,23.63
2023-04-04T01:52:21.057Z,23.66
2023-04-04T01:53:21.077Z,23.68
2023-04-04T01:54:21.097Z,23.65
2023-04-04T01:55:21.093Z,23.69
2023-04-04T01:56:21.106Z,23.65
2023-04-04T01:57:21.136Z,23.65
2023-04-04T01:58:21.117Z,23.65
2023-04-04T01:59:21.166Z,23.62
2023-04-04T02:00:21.135Z,23.59
2023-04-04T02:01:21.290Z,23.65
2023-04-04T02:02:21.163Z,23.65
2023-04-04T02:03:21.158Z,23.65
2023-04-04T02:04:21.192Z,23.66
2023-04-04T02:05:21.198Z,23.68
2023-04-04T02:06:21.171Z,23.62
2023-04-04T02:07:21.182Z,23.62
2023-04-04T02:08:21.184Z,23.58
2023-04-04T02:09:21.187Z,23.60
2023-04-04T02:10:21.201Z,23.59
2023-04-04T02:11:28.132Z,23.59
2023-04-04T02:12:21.640Z,23.60
2023-04-04T02:13:21.192Z,23.59
2023-04-04T02:14:22.137Z,23.63
2023-04-04T02:15:21.164Z,23.60
2023-04-04T02:16:21.314Z,23.59
2023-04-04T02:17:21.164Z,23.58
2023-04-04T02:18:21.148Z,23.58
2023-04-04T02:19:28.139Z,23.58
2023-04-04T02:20:21.126Z,23.55
2023-04-04T02:21:21.161Z,23.59
2023-04-04T02:22:21.110Z,23.58
2023-04-04T02:23:21.109Z,23.54
2023-04-04T02:24:21.106Z,23.55
2023-04-04T02:25:21.101Z,23.59
2023-04-04T02:26:21.143Z,23.56
2023-04-04T02:27:21.077Z,23.56
2023-04-04T02:28:21.071Z,23.59
2023-04-04T02:29:21.060Z,23.56
2023-04-04T02:30:21.052Z,23.56
2023-04-04T02:31:21.100Z,23.53
2023-04-04T02:32:21.051Z,23.55
2023-04-04T02:33:21.034Z,23.50
2023-04-04T02:34:21.020Z,23.56
2023-04-04T02:35:21.014Z,23.56
2023-04-04T02:36:21.069Z,23.58
2023-04-04T02:37:21.020Z,23.52
2023-04-04T02:38:20.995Z,23.53
2023-04-04T02:39:20.984Z,23.55
2023-04-04T02:40:20.976Z,23.50
2023-04-04T02:41:20.976Z,23.52
2023-04-04T02:42:20.961Z,23.58
2023-04-04T02:43:20.951Z,23.53
2023-04-04T02:44:20.946Z,23.52
2023-04-04T02:45:20.942Z,23.49
2023-04-04T02:46:21.960Z,23.52
2023-04-04T02:47:20.926Z,23.50
2023-04-04T02:48:20.926Z,23.53
2023-04-04T02:49:20.915Z,23.53
2023-04-04T02:50:20.937Z,23.46
2023-04-04T02:51:20.944Z,23.49
2023-04-04T02:52:20.945Z,23.50
2023-04-04T02:53:20.979Z,23.50
2023-04-04T02:54:20.970Z,23.52
2023-04-04T02:55:20.985Z,23.46
2023-04-04T02:56:21.001Z,23.50
2023-04-04T02:57:21.015Z,23.50
2023-04-04T02:58:21.025Z,23.46
2023-04-04T02:59:21.053Z,23.47
2023-04-04T03:00:21.049Z,23.43
2023-04-04T03:01:21.090Z,23.46
2023-04-04T03:02:21.158Z,23.46
2023-04-04T03:03:21.169Z,23.47
2023-04-04T03:04:21.093Z,23.46
2023-04-04T03:05:21.103Z,23.46
2023-04-04T03:06:21.117Z,23.44
2023-04-04T03:07:21.125Z,23.43
2023-04-04T03:08:21.136Z,23.43
2023-04-04T03:09:21.169Z,23.46
2023-04-04T03:10:21.159Z,23.47
2023-04-04T03:11:21.210Z,23.46
2023-04-04T03:12:21.167Z,23.40
2023-04-04T03:13:21.192Z,23.43
2023-04-04T03:14:24.522Z,23.47
2023-04-04T03:15:21.175Z,23.46
2023-04-04T03:16:21.220Z,23.42
2023-04-04T03:17:21.153Z,23.40
2023-04-04T03:18:21.151Z,23.42
2023-04-04T03:19:21.151Z,23.40
2023-04-04T03:20:21.141Z,23.43
2023-04-04T03:21:21.219Z,23.49
2023-04-04T03:22:21.125Z,23.44
2023-04-04T03:23:21.112Z,23.42
2023-04-04T03:24:21.104Z,23.46
2023-04-04T03:25:21.134Z,23.38
2023-04-04T03:26:21.084Z,23.44
2023-04-04T03:27:21.080Z,23.40
2023-04-04T03:28:21.070Z,23.42
2023-04-04T03:29:21.082Z,23.37
2023-04-04T03:30:21.059Z,23.37
2023-04-04T03:31:21.052Z,23.38
2023-04-04T03:32:21.057Z,23.38
2023-04-04T03:33:21.025Z,23.42
2023-04-04T03:34:21.017Z,23.44
2023-04-04T03:35:21.674Z,23.36
2023-04-04T03:36:21.008Z,23.37
2023-04-04T03:37:20.998Z,23.36
2023-04-04T03:38:20.997Z,23.36
2023-04-04T03:39:20.991Z,23.38
2023-04-04T03:40:20.981Z,23.37
2023-04-04T03:41:21.009Z,23.40
2023-04-04T03:42:20.962Z,23.39
2023-04-04T03:43:21.017Z,23.37
2023-04-04T03:44:20.946Z,23.37
2023-04-04T03:45:20.942Z,23.37
2023-04-04T03:46:20.968Z,23.37
2023-04-04T03:47:20.967Z,23.42
2023-04-04T03:48:20.918Z,23.37
2023-04-04T03:49:20.909Z,23.38
2023-04-04T03:50:20.898Z,23.37
2023-04-04T03:51:20.955Z,23.32
2023-04-04T03:52:20.894Z,23.36
2023-04-04T03:53:20.884Z,23.32
2023-04-04T03:54:20.889Z,23.34
2023-04-04T03:55:20.866Z,23.31
2023-04-04T03:56:20.858Z,23.32
2023-04-04T03:57:20.876Z,23.36
2023-04-04T03:58:20.849Z,23.34
2023-04-04T03:59:21.786Z,23.33
2023-04-04T04:00:20.879Z,23.38
2023-04-04T04:01:20.824Z,23.33
2023-04-04T04:02:20.862Z,23.34
2023-04-04T04:03:20.955Z,23.36
2023-04-04T04:04:20.838Z,23.31
2023-04-04T04:05:20.804Z,23.28
2023-04-04T04:06:20.781Z,23.33
2023-04-04T04:07:20.780Z,23.34
2023-04-04T04:08:21.604Z,23.31
2023-04-04T04:09:20.959Z,23.31
2023-04-04T04:10:20.968Z,23.28
2023-04-04T04:11:20.980Z,23.32
2023-04-04T04:12:20.990Z,23.30
2023-04-04T04:13:21.037Z,23.28
2023-04-04T04:14:21.023Z,23.31
2023-04-04T04:15:21.032Z,23.31
2023-04-04T04:16:21.074Z,23.30
2023-04-04T04:17:21.040Z,23.27
2023-04-04T04:18:21.062Z,23.31
2023-04-04T04:19:22.273Z,23.33
2023-04-04T04:20:21.082Z,23.26
2023-04-04T04:21:21.106Z,23.24
2023-04-04T04:22:21.114Z,23.25
2023-04-04T04:23:21.152Z,23.30
2023-04-04T04:24:21.146Z,23.26
2023-04-04T04:25:21.174Z,23.28
2023-04-04T04:26:21.160Z,23.25
2023-04-04T04:27:21.167Z,23.32
2023-04-04T04:28:21.193Z,23.28
2023-04-04T04:29:21.260Z,23.28
2023-04-04T04:30:21.194Z,23.28
2023-04-04T04:31:21.267Z,23.31
2023-04-04T04:32:21.222Z,23.25
2023-04-04T04:33:21.222Z,23.25
2023-04-04T04:34:21.235Z,23.23
2023-04-04T04:35:21.249Z,23.23
2023-04-04T04:36:21.335Z,23.23
2023-04-04T04:37:21.266Z,23.20
2023-04-04T04:38:21.291Z,23.22
2023-04-04T04:39:21.300Z,23.28
2023-04-04T04:40:24.200Z,23.22
2023-04-04T04:41:21.287Z,23.30
2023-04-04T04:42:21.286Z,23.22
2023-04-04T04:43:21.296Z,23.23
2023-04-04T04:44:21.274Z,23.24
2023-04-04T04:45:21.288Z,23.23
2023-04-04T04:46:21.318Z,23.19
2023-04-04T04:47:21.300Z,23.25
2023-04-04T04:48:21.251Z,23.17
2023-04-04T04:49:21.302Z,23.19
2023-04-04T04:50:21.242Z,23.23
2023-04-04T04:51:21.235Z,23.22
2023-04-04T04:52:21.216Z,23.25
2023-04-04T04:53:21.209Z,23.22
2023-04-04T04:54:21.206Z,23.23
2023-04-04T04:55:21.697Z,23.16
2023-04-04T04:56:21.202Z,23.23
2023-04-04T04:57:21.183Z,23.19
2023-04-04T04:58:21.171Z,23.20
2023-04-04T04:59:21.207Z,23.19
2023-04-04T05:00:21.165Z,23.19
2023-04-04T05:01:21.191Z,23.19
2023-04-04T05:02:21.234Z,23.19
2023-04-04T05:03:21.180Z,23.19
2023-04-04T05:04:21.135Z,23.19
2023-04-04T05:05:21.122Z,23.17
2023-04-04T05:06:21.119Z,23.24
2023-04-04T05:07:21.107Z,23.17
2023-04-04T05:08:21.103Z,23.17
2023-04-04T05:09:21.096Z,23.16
2023-04-04T05:10:21.085Z,23.20
2023-04-04T05:11:21.075Z,23.16
2023-04-04T05:12:23.698Z,23.12
2023-04-04T05:13:21.070Z,23.17
2023-04-04T05:14:21.049Z,23.15
2023-04-04T05:15:21.042Z,23.14
2023-04-04T05:16:21.047Z,23.19
2023-04-04T05:17:21.056Z,23.14
2023-04-04T05:18:21.039Z,23.19
2023-04-04T05:19:21.038Z,23.17
2023-04-04T05:20:21.012Z,23.13
2023-04-04T05:21:21.013Z,23.11
2023-04-04T05:22:21.006Z,23.17
2023-04-04T05:23:20.994Z,23.12
2023-04-04T05:24:20.983Z,23.19
2023-04-04T05:25:20.974Z,23.15
2023-04-04T05:26:20.968Z,23.11
2023-04-04T05:27:20.964Z,23.14
2023-04-04T05:28:20.951Z,23.08
2023-04-04T05:29:20.953Z,23.11
2023-04-04T05:30:20.952Z,23.11
2023-04-04T05:31:20.964Z,23.14
2023-04-04T05:32:20.926Z,23.14
2023-04-04T05:33:20.986Z,23.14
2023-04-04T05:34:20.910Z,23.13
2023-04-04T05:35:20.952Z,23.09
2023-04-04T05:36:20.899Z,23.13
2023-04-04T05:37:20.892Z,23.13
2023-04-04T05:38:20.879Z,23.09
2023-04-04T05:39:20.880Z,23.06
2023-04-04T05:40:20.878Z,23.08
2023-04-04T05:41:20.865Z,23.03
2023-04-04T05:42:20.856Z,23.06
2023-04-04T05:43:20.855Z,23.11
2023-04-04T05:44:20.836Z,23.09
2023-04-04T05:45:20.841Z,23.06
2023-04-04T05:46:20.864Z,23.03
2023-04-04T05:47:20.842Z,23.08
2023-04-04T05:48:35.736Z,23.03
2023-04-04T05:49:20.823Z,23.06
2023-04-04T05:50:20.791Z,23.09
2023-04-04T05:51:20.788Z,23.03
2023-04-04T05:52:20.779Z,23.03
2023-04-04T05:53:20.788Z,23.05
2023-04-04T05:54:20.771Z,23.08
2023-04-04T05:55:20.755Z,23.05
2023-04-04T05:56:20.768Z,23.00
2023-04-04T05:57:20.747Z,23.03
2023-04-04T05:58:20.761Z,23.02
2023-04-04T05:59:20.760Z,23.06
2023-04-04T06:00:21.260Z,23.03
2023-04-04T06:01:20.717Z,23.02
2023-04-04T06:02:20.745Z,23.06
2023-04-04T06:03:22.244Z,23.02
2023-04-04T06:04:20.918Z,23.00
2023-04-04T06:05:20.893Z,23.03
2023-04-04T06:06:20.958Z,23.02
2023-04-04T06:07:20.933Z,23.02
2023-04-04T06:08:20.958Z,23.02
2023-04-04T06:09:20.957Z,23.02
2023-04-04T06:10:20.953Z,22.99
2023-04-04T06:11:20.970Z,22.94
2023-04-04T06:12:20.997Z,22.99
2023-04-04T06:13:21.001Z,22.97
2023-04-04T06:14:21.008Z,23.02
2023-04-04T06:15:21.057Z,22.99
2023-04-04T06:16:21.098Z,23.03
2023-04-04T06:17:21.039Z,22.99
2023-04-04T06:18:21.051Z,22.99
2023-04-04T06:19:21.885Z,22.99
2023-04-04T06:20:21.230Z,23.00
2023-04-04T06:21:21.097Z,22.97
2023-04-04T06:22:21.109Z,22.94
2023-04-04T06:23:21.116Z,22.94
2023-04-04T06:24:21.127Z,22.89
2023-04-04T06:25:21.142Z,22.91
2023-04-04T06:26:21.155Z,22.91
2023-04-04T06:27:21.160Z,22.92
2023-04-04T06:28:21.170Z,22.94
2023-04-04T06:29:21.182Z,22.91
2023-04-04T06:30:21.183Z,22.90
2023-04-04T06:31:21.219Z,22.91
2023-04-04T06:32:21.202Z,22.91
2023-04-04T06:33:21.197Z,22.89
2023-04-04T06:34:21.203Z,22.91
2023-04-04T06:35:21.208Z,22.91
2023-04-04T06:36:21.315Z,22.90
2023-04-04T06:37:21.217Z,22.90
2023-04-04T06:38:21.225Z,22.86
2023-04-04T06:39:21.233Z,22.88
2023-04-04T06:40:22.231Z,22.81
2023-04-04T06:41:21.248Z,22.85
2023-04-04T06:42:21.262Z,22.88
2023-04-04T06:43:21.265Z,22.90
2023-04-04T06:44:21.268Z,22.87
2023-04-04T06:45:21.278Z,22.91
2023-04-04T06:46:21.280Z,22.91
2023-04-04T06:47:21.308Z,22.91
2023-04-04T06:48:21.275Z,22.88
2023-04-04T06:49:21.284Z,22.88
2023-04-04T06:50:21.284Z,22.88
2023-04-04T06:51:21.301Z,22.86
2023-04-04T06:52:21.318Z,22.83
2023-04-04T06:53:21.290Z,22.83
2023-04-04T06:54:21.289Z,22.85
2023-04-04T06:55:21.305Z,22.90
2023-04-04T06:56:21.308Z,22.90
2023-04-04T06:57:21.317Z,22.83
2023-04-04T06:58:21.321Z,22.85
2023-04-04T06:59:21.357Z,22.83
2023-04-04T07:00:22.241Z,22.79
2023-04-04T07:01:21.335Z,22.80
2023-04-04T07:02:21.361Z,22.77
2023-04-04T07:03:21.347Z,22.79
2023-04-04T07:04:21.335Z,22.80
2023-04-04T07:05:21.331Z,22.77
2023-04-04T07:06:21.332Z,22.77
2023-04-04T07:07:21.340Z,22.82
2023-04-04T07:08:21.377Z,22.76
2023-04-04T07:09:28.559Z,22.80
2023-04-04T07:10:21.329Z,22.82
2023-04-04T07:11:21.317Z,22.79
2023-04-04T07:12:21.321Z,22.76
2023-04-04T07:13:21.303Z,22.74
2023-04-04T07:14:21.299Z,22.74
2023-04-04T07:15:21.289Z,22.73
2023-04-04T07:16:21.312Z,22.74
2023-04-04T07:17:24.838Z,22.78
2023-04-04T07:18:21.269Z,22.73
2023-04-04T07:19:21.261Z,22.72
2023-04-04T07:20:21.260Z,22.70
2023-04-04T07:21:21.324Z,22.67
2023-04-04T07:22:21.371Z,22.64
2023-04-04T07:23:21.364Z,22.64
2023-04-04T07:24:21.386Z,22.72
2023-04-04T07:25:21.364Z,22.69
2023-04-04T07:26:21.365Z,22.67
2023-04-04T07:27:21.363Z,22.62
2023-04-04T07:28:21.357Z,22.64
2023-04-04T07:29:21.374Z,22.64
2023-04-04T07:30:21.366Z,22.62
2023-04-04T07:31:21.401Z,22.59
2023-04-04T07:32:23.203Z,22.58
2023-04-04T07:33:21.349Z,22.64
2023-04-04T07:34:21.371Z,22.66
2023-04-04T07:35:21.334Z,22.69
2023-04-04T07:36:21.326Z,22.63
2023-04-04T07:37:21.316Z,22.61
2023-04-04T07:38:21.306Z,22.62
2023-04-04T07:39:21.295Z,22.65
2023-04-04T07:40:21.438Z,22.64
2023-04-04T07:41:21.310Z,22.62
2023-04-04T07:42:21.277Z,22.57
2023-04-04T07:43:21.268Z,22.61
2023-04-04T07:44:21.267Z,22.61
2023-04-04T07:45:21.258Z,22.62
2023-04-04T07:46:21.336Z,22.62
2023-04-04T07:47:21.273Z,22.64
2023-04-04T07:48:22.980Z,22.62
2023-04-04T07:49:21.228Z,22.64
2023-04-04T07:50:21.217Z,22.67
2023-04-04T07:51:21.231Z,22.65
2023-04-04T07:52:21.216Z,22.64
2023-04-04T07:53:21.200Z,22.56
2023-04-04T07:54:21.202Z,22.58
2023-04-04T07:55:21.230Z,22.63
2023-04-04T07:56:21.215Z,22.61
2023-04-04T07:57:21.185Z,22.61
2023-04-04T07:58:21.176Z,22.58
2023-04-04T07:59:21.230Z,22.60
2023-04-04T08:01:13.716Z,22.56
2023-04-04T08:02:14.752Z,22.55
2023-04-04T08:03:14.813Z,22.55
2023-04-04T08:04:14.733Z,22.52
2023-04-04T08:05:14.693Z,22.52
2023-04-04T08:06:14.685Z,22.55
2023-04-04T08:07:14.668Z,22.50
2023-04-04T08:08:14.664Z,22.50
2023-04-04T08:09:14.651Z,22.52
2023-04-04T08:10:14.645Z,22.44
2023-04-04T08:11:14.647Z,22.49
2023-04-04T08:12:14.690Z,22.51
2023-04-04T08:13:14.633Z,22.49
2023-04-04T08:14:14.614Z,22.46
2023-04-04T08:15:14.633Z,22.44
2023-04-04T08:16:14.637Z,22.44
2023-04-04T08:17:14.604Z,22.46
2023-04-04T08:18:14.596Z,22.43
2023-04-04T08:19:14.585Z,22.49
2023-04-04T08:20:14.587Z,22.46
2023-04-04T08:21:14.588Z,22.44
2023-04-04T08:22:14.628Z,22.48
2023-04-04T08:23:14.557Z,22.44
2023-04-04T08:24:14.559Z,22.44
2023-04-04T08:25:14.549Z,22.43
2023-04-04T08:26:14.553Z,22.45
2023-04-04T08:27:14.538Z,22.46
2023-04-04T08:28:14.628Z,22.43
2023-04-04T08:29:14.544Z,22.38
2023-04-04T08:30:14.601Z,22.45
2023-04-04T08:31:14.538Z,22.45
2023-04-04T08:32:14.486Z,22.45
2023-04-04T08:33:14.526Z,22.40
2023-04-04T08:34:14.482Z,22.40
2023-04-04T08:35:14.467Z,22.38
2023-04-04T08:36:14.472Z,22.38
2023-04-04T08:37:14.462Z,22.41
2023-04-04T08:38:14.448Z,22.38
2023-04-04T08:39:14.447Z,22.38
2023-04-04T08:40:14.444Z,22.40
2023-04-04T08:41:14.425Z,22.45
2023-04-04T08:42:14.419Z,22.42
2023-04-04T08:43:14.426Z,22.37
2023-04-04T08:44:14.472Z,22.34
2023-04-04T08:45:14.476Z,22.37
2023-04-04T08:46:14.607Z,22.39
2023-04-04T08:47:14.588Z,22.36
2023-04-04T08:48:14.625Z,22.39
2023-04-04T08:49:14.669Z,22.36
2023-04-04T08:50:14.712Z,22.37
2023-04-04T08:51:14.752Z,22.33
2023-04-04T08:52:14.802Z,22.39
2023-04-04T08:53:14.844Z,22.34
2023-04-04T08:54:14.880Z,22.33
2023-04-04T08:55:14.934Z,22.34
2023-04-04T08:56:14.978Z,22.39
2023-04-04T08:57:15.016Z,22.31
2023-04-04T08:58:15.051Z,22.36
2023-04-04T08:59:15.239Z,22.36
2023-04-04T09:00:15.343Z,22.34
2023-04-04T09:01:15.198Z,22.29
2023-04-04T09:02:15.303Z,22.29
2023-04-04T09:03:15.326Z,22.34
2023-04-04T09:04:15.344Z,22.29
2023-04-04T09:05:15.426Z,22.33
2023-04-04T09:06:15.460Z,22.26
2023-04-04T09:07:15.526Z,22.33
2023-04-04T09:08:15.576Z,22.25
2023-04-04T09:09:15.633Z,22.29
2023-04-04T09:10:15.681Z,22.33
2023-04-04T09:11:15.746Z,22.34
2023-04-04T09:12:15.820Z,22.33
2023-04-04T09:13:16.822Z,22.31
2023-04-04T09:14:15.935Z,22.27
2023-04-04T09:15:16.075Z,22.28
2023-04-04T09:16:16.155Z,22.26
2023-04-04T09:17:16.117Z,22.30
2023-04-04T09:18:16.187Z,22.28
2023-04-04T09:19:16.236Z,22.26
2023-04-04T09:20:16.303Z,22.28
2023-04-04T09:21:16.356Z,22.27
2023-04-04T09:22:16.418Z,22.27
2023-04-04T09:23:16.488Z,22.25
2023-04-04T09:24:16.534Z,22.25
2023-04-04T09:25:16.848Z,22.25
2023-04-04T09:26:16.653Z,22.25
2023-04-04T09:27:16.715Z,22.27
2023-04-04T09:28:16.782Z,22.27
2023-04-04T09:29:17.027Z,22.22
2023-04-04T09:30:16.883Z,22.27
2023-04-04T09:31:16.959Z,22.22
2023-04-04T09:32:17.266Z,22.28
2023-04-04T09:33:17.109Z,22.27
2023-04-04T09:34:17.150Z,22.24
2023-04-04T09:35:17.189Z,22.20
2023-04-04T09:36:18.340Z,22.24
2023-04-04T09:37:17.310Z,22.28
2023-04-04T09:38:17.363Z,22.28
2023-04-04T09:39:17.474Z,22.20
2023-04-04T09:40:17.546Z,22.25
2023-04-04T09:41:17.549Z,22.24
2023-04-04T09:42:17.608Z,22.22
2023-04-04T09:43:17.662Z,22.30
2023-04-04T09:44:17.728Z,22.20
2023-04-04T09:45:29.439Z,22.19
2023-04-04T09:46:17.834Z,22.28
2023-04-04T09:47:29.573Z,22.19
2023-04-04T09:48:17.798Z,22.20
2023-04-04T09:49:17.779Z,22.24
2023-04-04T09:50:17.760Z,22.30
2023-04-04T09:51:17.750Z,22.22
2023-04-04T09:52:17.742Z,22.25
2023-04-04T09:53:17.745Z,22.22
2023-04-04T09:54:28.746Z,22.24
2023-04-04T09:55:17.725Z,22.24
2023-04-04T09:56:17.722Z,22.25
2023-04-04T09:57:17.718Z,22.21
2023-04-04T09:58:17.700Z,22.19
2023-04-04T09:59:17.759Z,22.22
2023-04-04T10:00:17.692Z,22.24
2023-04-04T10:01:17.722Z,22.22
2023-04-04T10:02:17.672Z,22.29
2023-04-04T10:03:17.680Z,22.18
2023-04-04T10:04:17.754Z,22.18
2023-04-04T10:05:17.655Z,22.15
2023-04-04T10:06:17.658Z,22.18
2023-04-04T10:07:17.646Z,22.18
2023-04-04T10:08:17.633Z,22.15
2023-04-04T10:09:17.624Z,22.18
2023-04-04T10:10:17.628Z,22.21
2023-04-04T10:11:17.610Z,22.18
2023-04-04T10:12:17.619Z,22.21
2023-04-04T10:13:17.597Z,22.20
2023-04-04T10:14:17.606Z,22.16
2023-04-04T10:15:17.584Z,22.16
2023-04-04T10:16:17.588Z,22.14
2023-04-04T10:17:17.614Z,22.08
2023-04-04T10:18:17.688Z,22.16
2023-04-04T10:19:17.763Z,22.18
2023-04-04T10:20:17.830Z,22.13
2023-04-04T10:21:17.876Z,22.19
2023-04-04T10:22:17.941Z,22.18
2023-04-04T10:23:18.003Z,22.15
2023-04-04T10:24:18.070Z,22.13
2023-04-04T10:25:18.150Z,22.15
2023-04-04T10:26:18.198Z,22.15
2023-04-04T10:27:18.234Z,22.16
2023-04-04T10:28:18.296Z,22.13
2023-04-04T10:29:18.372Z,22.15
2023-04-04T10:30:18.439Z,22.19
2023-04-04T10:31:18.572Z,22.20
2023-04-04T10:32:18.553Z,22.07
2023-04-04T10:33:18.618Z,22.12
2023-04-04T10:34:18.686Z,22.10
2023-04-04T10:35:18.744Z,22.10
2023-04-04T10:36:18.879Z,22.15
2023-04-04T10:37:18.865Z,22.13
2023-04-04T10:38:18.930Z,22.15
2023-04-04T10:39:18.984Z,22.12
2023-04-04T10:40:19.060Z,22.07
2023-04-04T10:41:19.129Z,22.13
2023-04-04T10:42:19.182Z,22.13
2023-04-04T10:43:19.247Z,22.15
2023-04-04T10:44:19.303Z,22.10
2023-04-04T10:45:21.651Z,22.12
2023-04-04T10:46:19.390Z,22.08
2023-04-04T10:47:19.350Z,22.12
2023-04-04T10:48:19.345Z,22.12
2023-04-04T10:49:19.338Z,22.12
2023-04-04T10:50:20.336Z,22.12
2023-04-04T10:51:19.325Z,22.10
2023-04-04T10:52:19.376Z,22.10
2023-04-04T10:53:19.334Z,22.13
2023-04-04T10:54:19.305Z,22.02
2023-04-04T10:55:19.298Z,22.06
2023-04-04T10:56:19.311Z,22.12
2023-04-04T10:57:19.289Z,22.09
2023-04-04T10:58:19.315Z,22.06
2023-04-04T10:59:19.464Z,22.10
2023-04-04T11:00:19.459Z,22.14
2023-04-04T11:01:19.573Z,22.06
2023-04-04T11:02:19.571Z,22.06
2023-04-04T11:03:19.616Z,22.04
2023-04-04T11:04:21.157Z,22.07
2023-04-04T11:05:19.663Z,22.10
2023-04-04T11:06:19.653Z,22.07
2023-04-04T11:07:19.652Z,22.10
2023-04-04T11:08:19.706Z,22.10
2023-04-04T11:09:19.645Z,22.06
2023-04-04T11:10:19.637Z,22.10
2023-04-04T11:11:22.412Z,22.09
2023-04-04T11:12:19.610Z,22.04
2023-04-04T11:13:19.606Z,22.03
2023-04-04T11:14:19.598Z,22.04
2023-04-04T11:15:19.596Z,22.09
2023-04-04T11:16:19.635Z,22.04
2023-04-04T11:17:19.580Z,22.06
2023-04-04T11:18:32.636Z,22.09
2023-04-04T11:19:19.564Z,22.09
2023-04-04T11:20:19.559Z,22.01
2023-04-04T11:21:19.556Z,22.00
2023-04-04T11:22:19.549Z,22.12
2023-04-04T11:23:19.539Z,22.06
2023-04-04T11:24:19.665Z,22.07
2023-04-04T11:25:19.524Z,22.04
2023-04-04T11:26:19.520Z,22.06
2023-04-04T11:27:19.539Z,22.09
2023-04-04T11:28:19.505Z,22.09
2023-04-04T11:29:19.493Z,22.04
2023-04-04T11:30:19.491Z,22.06
2023-04-04T11:31:19.553Z,22.07
2023-04-04T11:32:19.509Z,22.04
2023-04-04T11:33:19.504Z,22.09
2023-04-04T11:34:19.462Z,22.06
2023-04-04T11:35:19.449Z,22.06
2023-04-04T11:36:19.497Z,22.07
2023-04-04T11:37:19.442Z,22.00
2023-04-04T11:38:19.431Z,22.07
2023-04-04T11:39:19.426Z,22.06
2023-04-04T11:40:19.485Z,22.04
2023-04-04T11:41:20.523Z,22.06
2023-04-04T11:42:19.396Z,22.06
2023-04-04T11:43:19.397Z,22.03
2023-04-04T11:44:19.384Z,22.04
2023-04-04T11:45:19.374Z,22.04
2023-04-04T11:46:19.417Z,22.07
2023-04-04T11:47:19.376Z,22.07
2023-04-04T11:48:19.354Z,22.01
2023-04-04T11:49:19.353Z,22.06
2023-04-04T11:50:19.359Z,22.06
2023-04-04T11:51:19.330Z,22.03
2023-04-04T11:52:19.328Z,22.04
2023-04-04T11:53:19.322Z,22.03
2023-04-04T11:54:19.316Z,22.04
2023-04-04T11:55:19.327Z,21.97
2023-04-04T11:56:19.324Z,22.07
2023-04-04T11:57:19.288Z,22.00
2023-04-04T11:58:19.278Z,22.03
2023-04-04T11:59:19.344Z,22.04
2023-04-04T12:00:19.273Z,22.03
2023-04-04T12:01:19.264Z,22.04
2023-04-04T12:02:19.346Z,22.07
2023-04-04T12:03:19.287Z,22.03
2023-04-04T12:04:19.266Z,21.98
2023-04-04T12:05:19.326Z,22.07
2023-04-04T12:06:19.220Z,22.01
2023-04-04T12:07:19.221Z,22.03
2023-04-04T12:08:19.276Z,22.04
2023-04-04T12:09:19.333Z,22.00
2023-04-04T12:10:19.392Z,22.03
2023-04-04T12:11:19.439Z,22.06
2023-04-04T12:12:19.527Z,22.00
2023-04-04T12:13:19.553Z,22.03
2023-04-04T12:14:19.609Z,22.04
2023-04-04T12:15:19.667Z,21.98
2023-04-04T12:16:19.749Z,21.98
2023-04-04T12:17:19.780Z,22.01
2023-04-04T12:18:19.837Z,22.00
2023-04-04T12:19:19.884Z,21.98
2023-04-04T12:20:19.934Z,21.97
2023-04-04T12:21:20.004Z,21.98
2023-04-04T12:22:20.056Z,21.97
2023-04-04T12:23:20.122Z,21.97
2023-04-04T12:24:20.198Z,22.04
2023-04-04T12:25:20.260Z,22.01
2023-04-04T12:26:20.287Z,22.03
2023-04-04T12:27:20.343Z,21.94
2023-04-04T12:28:20.427Z,22.00
2023-04-04T12:29:20.452Z,22.03
2023-04-04T12:30:20.515Z,21.98
2023-04-04T12:31:20.604Z,21.97
2023-04-04T12:32:20.618Z,21.98
2023-04-04T12:33:20.660Z,21.98
2023-04-04T12:34:20.718Z,22.03
2023-04-04T12:35:20.785Z,22.00
2023-04-04T12:36:20.817Z,21.97
2023-04-04T12:37:20.897Z,21.98
2023-04-04T12:38:20.933Z,22.06
2023-04-04T12:39:20.994Z,22.06
2023-04-04T12:40:21.069Z,21.97
2023-04-04T12:41:21.088Z,22.00
2023-04-04T12:42:21.152Z,22.03
2023-04-04T12:43:21.188Z,22.00
2023-04-04T12:44:21.282Z,22.01
2023-04-04T12:45:21.396Z,21.93
2023-04-04T12:46:21.380Z,21.97
2023-04-04T12:47:21.503Z,21.98
2023-04-04T12:48:21.504Z,21.98
2023-04-04T12:49:21.522Z,22.01
2023-04-04T12:50:21.588Z,22.04
2023-04-04T12:51:21.637Z,21.97
2023-04-04T12:52:21.768Z,21.97
2023-04-04T12:54:20.734Z,21.95